sensor_id;sensor_type;location;lat;lon;timestamp;pressure;altitude;pressure_sealevel;temperature
71081;BMP180;58740;50.672;18.690;2024-01-10T00:00:30;100642.80;;;-10.40
71081;BMP180;58740;50.672;18.690;2024-01-10T00:03:23;100647.00;;;-10.50
71081;BMP180;58740;50.672;18.690;2024-01-10T00:05:57;100642.20;;;-10.44
71081;BMP180;58740;50.672;18.690;2024-01-10T00:08:30;100634.60;;;-10.50
71081;BMP180;58740;50.672;18.690;2024-01-10T00:11:04;100635.40;;;-10.40
71081;BMP180;58740;50.672;18.690;2024-01-10T00:13:37;100641.80;;;-10.40
71081;BMP180;58740;50.672;18.690;2024-01-10T00:16:12;100642.80;;;-10.30
71081;BMP180;58740;50.672;18.690;2024-01-10T00:18:46;100634.80;;;-10.30
71081;BMP180;58740;50.672;18.690;2024-01-10T00:21:19;100639.40;;;-10.30
71081;BMP180;58740;50.672;18.690;2024-01-10T00:23:52;100644.80;;;-10.30
71081;BMP180;58740;50.672;18.690;2024-01-10T00:26:25;100653.40;;;-10.30
71081;BMP180;58740;50.672;18.690;2024-01-10T00:28:59;100647.60;;;-10.30
71081;BMP180;58740;50.672;18.690;2024-01-10T00:31:36;100646.40;;;-10.30
71081;BMP180;58740;50.672;18.690;2024-01-10T00:34:09;100652.80;;;-10.30
71081;BMP180;58740;50.672;18.690;2024-01-10T00:36:42;100656.20;;;-10.30
71081;BMP180;58740;50.672;18.690;2024-01-10T00:39:16;100656.40;;;-10.30
71081;BMP180;58740;50.672;18.690;2024-01-10T00:41:49;100659.20;;;-10.30
71081;BMP180;58740;50.672;18.690;2024-01-10T00:44:22;100664.60;;;-10.28
71081;BMP180;58740;50.672;18.690;2024-01-10T00:46:55;100662.00;;;-10.28
71081;BMP180;58740;50.672;18.690;2024-01-10T00:49:29;100660.00;;;-10.30
71081;BMP180;58740;50.672;18.690;2024-01-10T00:52:03;100662.40;;;-10.40
71081;BMP180;58740;50.672;18.690;2024-01-10T00:54:36;100659.60;;;-10.40
71081;BMP180;58740;50.672;18.690;2024-01-10T00:57:09;100660.60;;;-10.30
71081;BMP180;58740;50.672;18.690;2024-01-10T00:59:42;100659.00;;;-10.30
71081;BMP180;58740;50.672;18.690;2024-01-10T01:02:15;100657.80;;;-10.30
71081;BMP180;58740;50.672;18.690;2024-01-10T01:04:49;100659.60;;;-10.30
71081;BMP180;58740;50.672;18.690;2024-01-10T01:07:22;100656.20;;;-10.40
71081;BMP180;58740;50.672;18.690;2024-01-10T01:09:55;100652.80;;;-10.40
71081;BMP180;58740;50.672;18.690;2024-01-10T01:12:28;100646.20;;;-10.40
71081;BMP180;58740;50.672;18.690;2024-01-10T01:15:02;100653.00;;;-10.40
71081;BMP180;58740;50.672;18.690;2024-01-10T01:17:36;100648.40;;;-10.40
71081;BMP180;58740;50.672;18.690;2024-01-10T01:20:10;100654.00;;;-10.40
71081;BMP180;58740;50.672;18.690;2024-01-10T01:22:44;100651.40;;;-10.40
71081;BMP180;58740;50.672;18.690;2024-01-10T01:25:17;100651.20;;;-10.34
71081;BMP180;58740;50.672;18.690;2024-01-10T01:27:50;100650.80;;;-10.30
71081;BMP180;58740;50.672;18.690;2024-01-10T01:30:24;100642.60;;;-10.30
71081;BMP180;58740;50.672;18.690;2024-01-10T01:32:57;100640.80;;;-10.30
71081;BMP180;58740;50.672;18.690;2024-01-10T01:35:30;100643.40;;;-10.30
71081;BMP180;58740;50.672;18.690;2024-01-10T01:38:04;100642.80;;;-10.38
71081;BMP180;58740;50.672;18.690;2024-01-10T01:40:37;100641.00;;;-10.40
71081;BMP180;58740;50.672;18.690;2024-01-10T01:43:24;100644.00;;;-10.40
71081;BMP180;58740;50.672;18.690;2024-01-10T01:45:58;100652.00;;;-10.48
71081;BMP180;58740;50.672;18.690;2024-01-10T01:48:31;100641.00;;;-10.50
71081;BMP180;58740;50.672;18.690;2024-01-10T01:51:08;100642.60;;;-10.50
71081;BMP180;58740;50.672;18.690;2024-01-10T01:53:43;100656.60;;;-10.58
71081;BMP180;58740;50.672;18.690;2024-01-10T01:56:17;100653.80;;;-10.70
71081;BMP180;58740;50.672;18.690;2024-01-10T01:58:53;100658.00;;;-10.72
71081;BMP180;58740;50.672;18.690;2024-01-10T02:01:27;100651.40;;;-10.70
71081;BMP180;58740;50.672;18.690;2024-01-10T02:04:02;100647.20;;;-10.70
71081;BMP180;58740;50.672;18.690;2024-01-10T02:06:36;100641.40;;;-10.80
71081;BMP180;58740;50.672;18.690;2024-01-10T02:09:09;100640.40;;;-10.90
71081;BMP180;58740;50.672;18.690;2024-01-10T02:11:43;100640.80;;;-10.90
71081;BMP180;58740;50.672;18.690;2024-01-10T02:14:16;100633.20;;;-10.90
71081;BMP180;58740;50.672;18.690;2024-01-10T02:16:50;100637.60;;;-10.80
71081;BMP180;58740;50.672;18.690;2024-01-10T02:19:25;100627.00;;;-10.80
71081;BMP180;58740;50.672;18.690;2024-01-10T02:22:01;100624.40;;;-10.78
71081;BMP180;58740;50.672;18.690;2024-01-10T02:24:35;100616.80;;;-10.80
71081;BMP180;58740;50.672;18.690;2024-01-10T02:27:08;100619.60;;;-10.80
71081;BMP180;58740;50.672;18.690;2024-01-10T02:29:41;100620.40;;;-10.80
71081;BMP180;58740;50.672;18.690;2024-01-10T02:32:15;100616.60;;;-10.80
71081;BMP180;58740;50.672;18.690;2024-01-10T02:34:48;100619.80;;;-10.80
71081;BMP180;58740;50.672;18.690;2024-01-10T02:37:21;100613.80;;;-10.80
71081;BMP180;58740;50.672;18.690;2024-01-10T02:39:54;100613.20;;;-10.90
71081;BMP180;58740;50.672;18.690;2024-01-10T02:42:29;100612.00;;;-10.88
71081;BMP180;58740;50.672;18.690;2024-01-10T02:45:02;100610.20;;;-10.80
71081;BMP180;58740;50.672;18.690;2024-01-10T02:47:36;100614.80;;;-10.80
71081;BMP180;58740;50.672;18.690;2024-01-10T02:50:11;100613.60;;;-10.80
71081;BMP180;58740;50.672;18.690;2024-01-10T02:52:44;100616.60;;;-10.80
71081;BMP180;58740;50.672;18.690;2024-01-10T02:55:17;100613.60;;;-10.88
71081;BMP180;58740;50.672;18.690;2024-01-10T02:57:50;100608.00;;;-10.90
71081;BMP180;58740;50.672;18.690;2024-01-10T03:00:23;100608.60;;;-11.02
71081;BMP180;58740;50.672;18.690;2024-01-10T03:02:56;100613.40;;;-11.10
71081;BMP180;58740;50.672;18.690;2024-01-10T03:05:30;100604.60;;;-11.10
71081;BMP180;58740;50.672;18.690;2024-01-10T03:08:05;100603.20;;;-11.20
71081;BMP180;58740;50.672;18.690;2024-01-10T03:10:39;100605.20;;;-11.10
71081;BMP180;58740;50.672;18.690;2024-01-10T03:13:12;100603.40;;;-11.10
71081;BMP180;58740;50.672;18.690;2024-01-10T03:15:45;100585.40;;;-11.10
71081;BMP180;58740;50.672;18.690;2024-01-10T03:18:18;100597.40;;;-11.14
71081;BMP180;58740;50.672;18.690;2024-01-10T03:20:52;100590.00;;;-11.10
71081;BMP180;58740;50.672;18.690;2024-01-10T03:23:25;100597.60;;;-11.10
71081;BMP180;58740;50.672;18.690;2024-01-10T03:25:59;100589.00;;;-11.10
71081;BMP180;58740;50.672;18.690;2024-01-10T03:28:33;100590.00;;;-11.08
71081;BMP180;58740;50.672;18.690;2024-01-10T03:31:06;100587.60;;;-11.00
71081;BMP180;58740;50.672;18.690;2024-01-10T03:33:39;100584.20;;;-11.08
71081;BMP180;58740;50.672;18.690;2024-01-10T03:36:15;100586.40;;;-11.08
71081;BMP180;58740;50.672;18.690;2024-01-10T03:38:48;100582.20;;;-11.16
71081;BMP180;58740;50.672;18.690;2024-01-10T03:41:22;100577.00;;;-11.20
71081;BMP180;58740;50.672;18.690;2024-01-10T03:43:55;100583.40;;;-11.30
71081;BMP180;58740;50.672;18.690;2024-01-10T03:46:29;100579.20;;;-11.30
71081;BMP180;58740;50.672;18.690;2024-01-10T03:49:02;100579.80;;;-11.30
71081;BMP180;58740;50.672;18.690;2024-01-10T03:51:35;100572.80;;;-11.30
71081;BMP180;58740;50.672;18.690;2024-01-10T03:54:09;100571.80;;;-11.30
71081;BMP180;58740;50.672;18.690;2024-01-10T03:56:42;100572.40;;;-11.30
71081;BMP180;58740;50.672;18.690;2024-01-10T03:59:16;100568.20;;;-11.20
71081;BMP180;58740;50.672;18.690;2024-01-10T04:01:49;100568.60;;;-11.10
71081;BMP180;58740;50.672;18.690;2024-01-10T04:04:23;100564.20;;;-10.98
71081;BMP180;58740;50.672;18.690;2024-01-10T04:06:56;100549.80;;;-10.98
71081;BMP180;58740;50.672;18.690;2024-01-10T04:09:29;100556.80;;;-10.90
71081;BMP180;58740;50.672;18.690;2024-01-10T04:12:02;100558.60;;;-10.90
71081;BMP180;58740;50.672;18.690;2024-01-10T04:14:36;100558.80;;;-10.90
71081;BMP180;58740;50.672;18.690;2024-01-10T04:17:09;100570.00;;;-10.90
71081;BMP180;58740;50.672;18.690;2024-01-10T04:19:42;100569.20;;;-10.90
71081;BMP180;58740;50.672;18.690;2024-01-10T04:22:16;100574.00;;;-10.90
71081;BMP180;58740;50.672;18.690;2024-01-10T04:24:49;100569.20;;;-10.90
71081;BMP180;58740;50.672;18.690;2024-01-10T04:27:23;100569.60;;;-10.90
71081;BMP180;58740;50.672;18.690;2024-01-10T04:29:56;100569.40;;;-10.90
71081;BMP180;58740;50.672;18.690;2024-01-10T04:32:29;100564.80;;;-10.90
71081;BMP180;58740;50.672;18.690;2024-01-10T04:35:03;100572.60;;;-10.90
71081;BMP180;58740;50.672;18.690;2024-01-10T04:37:36;100573.60;;;-10.90
71081;BMP180;58740;50.672;18.690;2024-01-10T04:40:11;100567.00;;;-10.86
71081;BMP180;58740;50.672;18.690;2024-01-10T04:42:45;100563.60;;;-10.80
71081;BMP180;58740;50.672;18.690;2024-01-10T04:45:18;100567.20;;;-10.80
71081;BMP180;58740;50.672;18.690;2024-01-10T04:47:52;100562.60;;;-10.80
71081;BMP180;58740;50.672;18.690;2024-01-10T04:50:25;100573.00;;;-10.80
71081;BMP180;58740;50.672;18.690;2024-01-10T04:52:58;100570.20;;;-10.90
71081;BMP180;58740;50.672;18.690;2024-01-10T04:55:32;100572.00;;;-10.90
71081;BMP180;58740;50.672;18.690;2024-01-10T04:58:05;100570.60;;;-10.90
71081;BMP180;58740;50.672;18.690;2024-01-10T05:00:38;100575.60;;;-10.94
71081;BMP180;58740;50.672;18.690;2024-01-10T05:03:12;100578.40;;;-10.90
71081;BMP180;58740;50.672;18.690;2024-01-10T05:05:45;100573.00;;;-10.98
71081;BMP180;58740;50.672;18.690;2024-01-10T05:08:18;100578.40;;;-10.90
71081;BMP180;58740;50.672;18.690;2024-01-10T05:10:53;100577.40;;;-10.94
71081;BMP180;58740;50.672;18.690;2024-01-10T05:13:26;100573.60;;;-11.00
71081;BMP180;58740;50.672;18.690;2024-01-10T05:15:59;100568.60;;;-11.00
71081;BMP180;58740;50.672;18.690;2024-01-10T05:18:32;100573.20;;;-11.00
71081;BMP180;58740;50.672;18.690;2024-01-10T05:21:06;100575.60;;;-11.10
71081;BMP180;58740;50.672;18.690;2024-01-10T05:23:40;100574.40;;;-11.20
71081;BMP180;58740;50.672;18.690;2024-01-10T05:26:13;100581.20;;;-11.20
71081;BMP180;58740;50.672;18.690;2024-01-10T05:28:46;100588.40;;;-11.18
71081;BMP180;58740;50.672;18.690;2024-01-10T05:31:19;100586.40;;;-11.16
71081;BMP180;58740;50.672;18.690;2024-01-10T05:33:52;100588.00;;;-11.20
71081;BMP180;58740;50.672;18.690;2024-01-10T05:36:26;100585.20;;;-11.20
71081;BMP180;58740;50.672;18.690;2024-01-10T05:38:59;100578.40;;;-11.20
71081;BMP180;58740;50.672;18.690;2024-01-10T05:41:32;100583.80;;;-11.10
71081;BMP180;58740;50.672;18.690;2024-01-10T05:44:07;100584.80;;;-11.00
71081;BMP180;58740;50.672;18.690;2024-01-10T05:46:40;100594.60;;;-11.00
71081;BMP180;58740;50.672;18.690;2024-01-10T05:49:14;100581.60;;;-10.90
71081;BMP180;58740;50.672;18.690;2024-01-10T05:51:47;100585.80;;;-10.90
71081;BMP180;58740;50.672;18.690;2024-01-10T05:54:20;100574.60;;;-10.80
71081;BMP180;58740;50.672;18.690;2024-01-10T05:56:54;100580.20;;;-10.80
71081;BMP180;58740;50.672;18.690;2024-01-10T05:59:27;100569.60;;;-10.80
71081;BMP180;58740;50.672;18.690;2024-01-10T06:02:01;100575.80;;;-10.84
71081;BMP180;58740;50.672;18.690;2024-01-10T06:04:36;100575.40;;;-10.84
71081;BMP180;58740;50.672;18.690;2024-01-10T06:07:10;100575.20;;;-10.90
71081;BMP180;58740;50.672;18.690;2024-01-10T06:09:43;100568.00;;;-10.80
71081;BMP180;58740;50.672;18.690;2024-01-10T06:12:17;100572.40;;;-10.80
71081;BMP180;58740;50.672;18.690;2024-01-10T06:14:50;100570.00;;;-10.80
71081;BMP180;58740;50.672;18.690;2024-01-10T06:17:24;100571.60;;;-10.80
71081;BMP180;58740;50.672;18.690;2024-01-10T06:19:57;100574.60;;;-10.90
71081;BMP180;58740;50.672;18.690;2024-01-10T06:22:32;100578.80;;;-10.90
71081;BMP180;58740;50.672;18.690;2024-01-10T06:25:08;100582.60;;;-10.90
71081;BMP180;58740;50.672;18.690;2024-01-10T06:27:41;100585.60;;;-10.90
71081;BMP180;58740;50.672;18.690;2024-01-10T06:30:15;100586.40;;;-10.90
71081;BMP180;58740;50.672;18.690;2024-01-10T06:32:49;100582.60;;;-10.86
71081;BMP180;58740;50.672;18.690;2024-01-10T06:35:22;100577.20;;;-10.80
71081;BMP180;58740;50.672;18.690;2024-01-10T06:37:55;100572.80;;;-10.80
71081;BMP180;58740;50.672;18.690;2024-01-10T06:40:29;100574.20;;;-10.74
71081;BMP180;58740;50.672;18.690;2024-01-10T06:43:03;100575.60;;;-10.80
71081;BMP180;58740;50.672;18.690;2024-01-10T06:45:37;100574.20;;;-10.80
71081;BMP180;58740;50.672;18.690;2024-01-10T06:48:10;100579.60;;;-10.80
71081;BMP180;58740;50.672;18.690;2024-01-10T06:50:44;100574.00;;;-10.72
71081;BMP180;58740;50.672;18.690;2024-01-10T06:53:17;100568.60;;;-10.80
71081;BMP180;58740;50.672;18.690;2024-01-10T06:55:51;100566.40;;;-10.82
71081;BMP180;58740;50.672;18.690;2024-01-10T06:58:24;100562.40;;;-10.90
71081;BMP180;58740;50.672;18.690;2024-01-10T07:00:57;100559.60;;;-10.94
71081;BMP180;58740;50.672;18.690;2024-01-10T07:03:32;100561.80;;;-11.00
71081;BMP180;58740;50.672;18.690;2024-01-10T07:06:07;100560.00;;;-10.98
71081;BMP180;58740;50.672;18.690;2024-01-10T07:08:41;100562.00;;;-10.90
71081;BMP180;58740;50.672;18.690;2024-01-10T07:11:14;100559.60;;;-10.90
71081;BMP180;58740;50.672;18.690;2024-01-10T07:13:48;100555.80;;;-10.90
71081;BMP180;58740;50.672;18.690;2024-01-10T07:16:21;100555.20;;;-10.88
71081;BMP180;58740;50.672;18.690;2024-01-10T07:18:55;100550.40;;;-10.80
71081;BMP180;58740;50.672;18.690;2024-01-10T07:21:28;100558.20;;;-10.74
71081;BMP180;58740;50.672;18.690;2024-01-10T07:24:01;100558.80;;;-10.70
71081;BMP180;58740;50.672;18.690;2024-01-10T07:26:35;100556.80;;;-10.60
71081;BMP180;58740;50.672;18.690;2024-01-10T07:29:08;100558.00;;;-10.60
71081;BMP180;58740;50.672;18.690;2024-01-10T07:31:42;100558.20;;;-10.60
71081;BMP180;58740;50.672;18.690;2024-01-10T07:34:15;100563.20;;;-10.60
71081;BMP180;58740;50.672;18.690;2024-01-10T07:36:48;100548.80;;;-10.60
71081;BMP180;58740;50.672;18.690;2024-01-10T07:39:22;100549.40;;;-10.60
71081;BMP180;58740;50.672;18.690;2024-01-10T07:41:55;100552.80;;;-10.50
71081;BMP180;58740;50.672;18.690;2024-01-10T07:44:28;100543.80;;;-10.48
71081;BMP180;58740;50.672;18.690;2024-01-10T07:47:02;100545.00;;;-10.40
71081;BMP180;58740;50.672;18.690;2024-01-10T07:49:35;100547.00;;;-10.38
71081;BMP180;58740;50.672;18.690;2024-01-10T07:52:10;100543.40;;;-10.30
71081;BMP180;58740;50.672;18.690;2024-01-10T07:54:43;100546.20;;;-10.30
71081;BMP180;58740;50.672;18.690;2024-01-10T07:57:16;100546.00;;;-10.20
71081;BMP180;58740;50.672;18.690;2024-01-10T07:59:51;100547.20;;;-10.10
71081;BMP180;58740;50.672;18.690;2024-01-10T08:02:25;100544.20;;;-10.02
71081;BMP180;58740;50.672;18.690;2024-01-10T08:04:58;100540.40;;;-10.00
71081;BMP180;58740;50.672;18.690;2024-01-10T08:07:31;100538.80;;;-10.00
71081;BMP180;58740;50.672;18.690;2024-01-10T08:10:07;100534.80;;;-9.94
71081;BMP180;58740;50.672;18.690;2024-01-10T08:12:43;100540.80;;;-9.90
71081;BMP180;58740;50.672;18.690;2024-01-10T08:15:16;100535.60;;;-9.90
71081;BMP180;58740;50.672;18.690;2024-01-10T08:17:51;100544.60;;;-9.80
71081;BMP180;58740;50.672;18.690;2024-01-10T08:20:26;100549.60;;;-9.70
71081;BMP180;58740;50.672;18.690;2024-01-10T08:22:59;100545.20;;;-9.64
71081;BMP180;58740;50.672;18.690;2024-01-10T08:25:32;100551.20;;;-9.60
71081;BMP180;58740;50.672;18.690;2024-01-10T08:28:06;100547.60;;;-9.50
71081;BMP180;58740;50.672;18.690;2024-01-10T08:30:39;100540.40;;;-9.44
71081;BMP180;58740;50.672;18.690;2024-01-10T08:33:12;100538.60;;;-9.40
71081;BMP180;58740;50.672;18.690;2024-01-10T08:35:46;100535.60;;;-9.40
71081;BMP180;58740;50.672;18.690;2024-01-10T08:38:20;100546.00;;;-9.40
71081;BMP180;58740;50.672;18.690;2024-01-10T08:40:53;100534.20;;;-9.34
71081;BMP180;58740;50.672;18.690;2024-01-10T08:43:26;100540.00;;;-9.30
71081;BMP180;58740;50.672;18.690;2024-01-10T08:45:59;100547.00;;;-9.20
71081;BMP180;58740;50.672;18.690;2024-01-10T08:48:33;100547.20;;;-9.20
71081;BMP180;58740;50.672;18.690;2024-01-10T08:51:07;100551.60;;;-9.20
71081;BMP180;58740;50.672;18.690;2024-01-10T08:53:41;100546.20;;;-9.10
71081;BMP180;58740;50.672;18.690;2024-01-10T08:56:16;100546.20;;;-9.00
71081;BMP180;58740;50.672;18.690;2024-01-10T08:58:49;100550.20;;;-8.90
71081;BMP180;58740;50.672;18.690;2024-01-10T09:01:23;100545.40;;;-8.74
71081;BMP180;58740;50.672;18.690;2024-01-10T09:03:56;100536.40;;;-8.60
71081;BMP180;58740;50.672;18.690;2024-01-10T09:06:30;100546.20;;;-8.42
71081;BMP180;58740;50.672;18.690;2024-01-10T09:09:04;100543.40;;;-8.30
71081;BMP180;58740;50.672;18.690;2024-01-10T09:11:37;100538.00;;;-8.20
71081;BMP180;58740;50.672;18.690;2024-01-10T09:14:13;100538.20;;;-8.12
71081;BMP180;58740;50.672;18.690;2024-01-10T09:16:47;100545.80;;;-8.10
71081;BMP180;58740;50.672;18.690;2024-01-10T09:19:21;100542.40;;;-8.10
71081;BMP180;58740;50.672;18.690;2024-01-10T09:21:54;100535.20;;;-8.10
71081;BMP180;58740;50.672;18.690;2024-01-10T09:24:27;100526.40;;;-8.10
71081;BMP180;58740;50.672;18.690;2024-01-10T09:27:01;100527.80;;;-8.10
71081;BMP180;58740;50.672;18.690;2024-01-10T09:29:35;100531.80;;;-8.10
71081;BMP180;58740;50.672;18.690;2024-01-10T09:32:09;100525.20;;;-8.10
71081;BMP180;58740;50.672;18.690;2024-01-10T09:34:43;100525.00;;;-8.10
71081;BMP180;58740;50.672;18.690;2024-01-10T09:37:17;100520.00;;;-8.04
71081;BMP180;58740;50.672;18.690;2024-01-10T09:39:50;100518.20;;;-8.00
71081;BMP180;58740;50.672;18.690;2024-01-10T09:42:24;100513.60;;;-7.90
71081;BMP180;58740;50.672;18.690;2024-01-10T09:44:58;100507.80;;;-7.80
71081;BMP180;58740;50.672;18.690;2024-01-10T09:47:33;100503.60;;;-7.66
71081;BMP180;58740;50.672;18.690;2024-01-10T09:50:10;100499.00;;;-7.50
71081;BMP180;58740;50.672;18.690;2024-01-10T09:52:53;100494.80;;;-7.44
71081;BMP180;58740;50.672;18.690;2024-01-10T09:55:30;100498.20;;;-7.30
71081;BMP180;58740;50.672;18.690;2024-01-10T09:58:07;100495.20;;;-7.20
71081;BMP180;58740;50.672;18.690;2024-01-10T10:00:43;100487.40;;;-7.10
71081;BMP180;58740;50.672;18.690;2024-01-10T10:03:18;100485.80;;;-6.90
71081;BMP180;58740;50.672;18.690;2024-01-10T10:05:52;100488.60;;;-6.80
71081;BMP180;58740;50.672;18.690;2024-01-10T10:08:25;100487.60;;;-6.70
71081;BMP180;58740;50.672;18.690;2024-01-10T10:10:58;100493.40;;;-6.60
71081;BMP180;58740;50.672;18.690;2024-01-10T10:13:32;100491.60;;;-6.50
71081;BMP180;58740;50.672;18.690;2024-01-10T10:16:09;100486.20;;;-6.50
71081;BMP180;58740;50.672;18.690;2024-01-10T10:18:45;100488.60;;;-6.60
71081;BMP180;58740;50.672;18.690;2024-01-10T10:21:24;100498.20;;;-6.60
71081;BMP180;58740;50.672;18.690;2024-01-10T10:24:04;100505.80;;;-6.60
71081;BMP180;58740;50.672;18.690;2024-01-10T10:26:39;100505.20;;;-6.68
71081;BMP180;58740;50.672;18.690;2024-01-10T10:29:13;100506.00;;;-6.70
71081;BMP180;58740;50.672;18.690;2024-01-10T10:31:51;100506.80;;;-6.70
71081;BMP180;58740;50.672;18.690;2024-01-10T10:34:30;100504.80;;;-6.70
71081;BMP180;58740;50.672;18.690;2024-01-10T10:37:04;100501.40;;;-6.60
71081;BMP180;58740;50.672;18.690;2024-01-10T10:39:37;100490.40;;;-6.50
71081;BMP180;58740;50.672;18.690;2024-01-10T10:42:11;100488.40;;;-6.40
71081;BMP180;58740;50.672;18.690;2024-01-10T10:44:45;100489.00;;;-6.30
71081;BMP180;58740;50.672;18.690;2024-01-10T10:47:21;100474.80;;;-6.20
71081;BMP180;58740;50.672;18.690;2024-01-10T10:49:56;100476.80;;;-6.10
71081;BMP180;58740;50.672;18.690;2024-01-10T10:52:34;100476.20;;;-6.00
71081;BMP180;58740;50.672;18.690;2024-01-10T10:55:08;100475.20;;;-5.90
71081;BMP180;58740;50.672;18.690;2024-01-10T10:57:45;100476.40;;;-5.90
71081;BMP180;58740;50.672;18.690;2024-01-10T11:00:35;100472.00;;;-5.74
71081;BMP180;58740;50.672;18.690;2024-01-10T11:03:11;100481.80;;;-5.70
71081;BMP180;58740;50.672;18.690;2024-01-10T11:05:46;100481.20;;;-5.70
71081;BMP180;58740;50.672;18.690;2024-01-10T11:08:23;100476.40;;;-5.70
71081;BMP180;58740;50.672;18.690;2024-01-10T11:10:58;100478.80;;;-5.76
71081;BMP180;58740;50.672;18.690;2024-01-10T11:13:51;100477.40;;;-5.80
71081;BMP180;58740;50.672;18.690;2024-01-10T11:16:54;100477.20;;;-5.86
71081;BMP180;58740;50.672;18.690;2024-01-10T11:20:13;100477.80;;;-5.90
71081;BMP180;58740;50.672;18.690;2024-01-10T11:25:53;100471.20;;;-5.94
71081;BMP180;58740;50.672;18.690;2024-01-10T11:28:31;100473.60;;;-5.98
71081;BMP180;58740;50.672;18.690;2024-01-10T11:31:07;100474.60;;;-6.00
71081;BMP180;58740;50.672;18.690;2024-01-10T11:33:42;100465.40;;;-6.00
71081;BMP180;58740;50.672;18.690;2024-01-10T11:36:18;100464.80;;;-5.92
71081;BMP180;58740;50.672;18.690;2024-01-10T11:38:58;100463.60;;;-5.90
71081;BMP180;58740;50.672;18.690;2024-01-10T11:41:36;100464.00;;;-5.80
71081;BMP180;58740;50.672;18.690;2024-01-10T11:44:51;100462.00;;;-5.70
71081;BMP180;58740;50.672;18.690;2024-01-10T11:47:26;100466.80;;;-5.56
71081;BMP180;58740;50.672;18.690;2024-01-10T11:50:03;100464.00;;;-5.40
71081;BMP180;58740;50.672;18.690;2024-01-10T11:52:40;100452.80;;;-5.20
71081;BMP180;58740;50.672;18.690;2024-01-10T11:55:49;100444.20;;;-5.10
71081;BMP180;58740;50.672;18.690;2024-01-10T11:58:26;100442.60;;;-4.90
71081;BMP180;58740;50.672;18.690;2024-01-10T12:01:00;100446.00;;;-4.90
71081;BMP180;58740;50.672;18.690;2024-01-10T12:03:36;100444.20;;;-4.80
71081;BMP180;58740;50.672;18.690;2024-01-10T12:06:30;100442.80;;;-4.80
71081;BMP180;58740;50.672;18.690;2024-01-10T12:09:04;100440.20;;;-4.88
71081;BMP180;58740;50.672;18.690;2024-01-10T12:11:41;100435.80;;;-4.90
71081;BMP180;58740;50.672;18.690;2024-01-10T12:14:15;100426.00;;;-4.90
71081;BMP180;58740;50.672;18.690;2024-01-10T12:16:49;100422.40;;;-4.90
71081;BMP180;58740;50.672;18.690;2024-01-10T12:19:23;100412.80;;;-4.98
71081;BMP180;58740;50.672;18.690;2024-01-10T12:21:57;100409.20;;;-5.00
71081;BMP180;58740;50.672;18.690;2024-01-10T12:24:31;100406.20;;;-5.00
71081;BMP180;58740;50.672;18.690;2024-01-10T12:27:05;100404.60;;;-5.08
71081;BMP180;58740;50.672;18.690;2024-01-10T12:29:39;100403.80;;;-5.10
71081;BMP180;58740;50.672;18.690;2024-01-10T12:32:13;100398.60;;;-5.10
71081;BMP180;58740;50.672;18.690;2024-01-10T12:34:46;100399.00;;;-5.00
71081;BMP180;58740;50.672;18.690;2024-01-10T12:37:20;100400.80;;;-4.90
71081;BMP180;58740;50.672;18.690;2024-01-10T12:39:53;100397.80;;;-4.78
71081;BMP180;58740;50.672;18.690;2024-01-10T12:42:28;100397.00;;;-4.60
71081;BMP180;58740;50.672;18.690;2024-01-10T12:45:01;100389.20;;;-4.50
71081;BMP180;58740;50.672;18.690;2024-01-10T12:47:37;100389.00;;;-4.30
71081;BMP180;58740;50.672;18.690;2024-01-10T12:50:13;100377.60;;;-4.20
71081;BMP180;58740;50.672;18.690;2024-01-10T12:52:46;100377.40;;;-4.16
71081;BMP180;58740;50.672;18.690;2024-01-10T12:55:21;100373.00;;;-4.10
71081;BMP180;58740;50.672;18.690;2024-01-10T12:57:54;100370.40;;;-4.10
71081;BMP180;58740;50.672;18.690;2024-01-10T13:00:32;100374.20;;;-4.10
71081;BMP180;58740;50.672;18.690;2024-01-10T13:03:07;100373.20;;;-4.10
71081;BMP180;58740;50.672;18.690;2024-01-10T13:05:40;100373.00;;;-4.10
71081;BMP180;58740;50.672;18.690;2024-01-10T13:08:13;100374.60;;;-4.10
71081;BMP180;58740;50.672;18.690;2024-01-10T13:10:48;100373.00;;;-4.20
71081;BMP180;58740;50.672;18.690;2024-01-10T13:13:21;100368.00;;;-4.20
71081;BMP180;58740;50.672;18.690;2024-01-10T13:15:55;100369.60;;;-4.20
71081;BMP180;58740;50.672;18.690;2024-01-10T13:18:28;100368.40;;;-4.20
71081;BMP180;58740;50.672;18.690;2024-01-10T13:21:02;100363.20;;;-4.24
71081;BMP180;58740;50.672;18.690;2024-01-10T13:23:35;100362.80;;;-4.30
71081;BMP180;58740;50.672;18.690;2024-01-10T13:26:08;100371.80;;;-4.30
71081;BMP180;58740;50.672;18.690;2024-01-10T13:28:43;100372.00;;;-4.30
71081;BMP180;58740;50.672;18.690;2024-01-10T13:31:17;100369.80;;;-4.38
71081;BMP180;58740;50.672;18.690;2024-01-10T13:33:50;100374.00;;;-4.40
71081;BMP180;58740;50.672;18.690;2024-01-10T13:36:28;100369.20;;;-4.40
71081;BMP180;58740;50.672;18.690;2024-01-10T13:39:04;100371.00;;;-4.40
71081;BMP180;58740;50.672;18.690;2024-01-10T13:41:41;100372.40;;;-4.40
71081;BMP180;58740;50.672;18.690;2024-01-10T13:44:16;100365.80;;;-4.40
71081;BMP180;58740;50.672;18.690;2024-01-10T13:46:53;100372.60;;;-4.30
71081;BMP180;58740;50.672;18.690;2024-01-10T13:49:27;100362.20;;;-4.20
71081;BMP180;58740;50.672;18.690;2024-01-10T13:52:02;100367.80;;;-4.16
71081;BMP180;58740;50.672;18.690;2024-01-10T13:54:36;100359.60;;;-4.06
71081;BMP180;58740;50.672;18.690;2024-01-10T13:57:11;100359.00;;;-4.00
71081;BMP180;58740;50.672;18.690;2024-01-10T13:59:44;100362.40;;;-3.90
71081;BMP180;58740;50.672;18.690;2024-01-10T14:02:19;100365.00;;;-3.80
71081;BMP180;58740;50.672;18.690;2024-01-10T14:04:53;100354.80;;;-3.80
71081;BMP180;58740;50.672;18.690;2024-01-10T14:07:30;100361.00;;;-3.70
71081;BMP180;58740;50.672;18.690;2024-01-10T14:10:05;100360.60;;;-3.60
71081;BMP180;58740;50.672;18.690;2024-01-10T14:12:39;100361.20;;;-3.50
71081;BMP180;58740;50.672;18.690;2024-01-10T14:15:12;100359.40;;;-3.50
71081;BMP180;58740;50.672;18.690;2024-01-10T14:17:46;100358.80;;;-3.50
71081;BMP180;58740;50.672;18.690;2024-01-10T14:20:21;100358.40;;;-3.50